createdAt,value
2018-06-20T00:01:53.624Z,101160
2018-06-20T00:04:19.645Z,101157
2018-06-20T00:06:45.668Z,101164
2018-06-20T00:09:11.670Z,101154
2018-06-20T00:11:37.711Z,101153
2018-06-20T00:14:03.737Z,101156
2018-06-20T00:16:29.779Z,101156
2018-06-20T00:18:55.783Z,101157
2018-06-20T00:21:21.794Z,101155
2018-06-20T00:23:47.797Z,101156
2018-06-20T00:26:13.798Z,101160
2018-06-20T00:28:39.810Z,101157
2018-06-20T00:31:05.816Z,101151
2018-06-20T00:33:31.823Z,101164
2018-06-20T00:35:57.831Z,101158
2018-06-20T00:38:23.841Z,101149
2018-06-20T00:40:49.847Z,101152
2018-06-20T00:43:15.861Z,101144
2018-06-20T00:45:41.899Z,101148
2018-06-20T00:48:07.918Z,101152
2018-06-20T00:50:33.921Z,101153
2018-06-20T00:52:59.954Z,101148
2018-06-20T00:55:25.964Z,101141
2018-06-20T00:57:52.006Z,101137
2018-06-20T01:00:18.023Z,101145
2018-06-20T01:02:44.034Z,101138
2018-06-20T01:05:10.058Z,101143
2018-06-20T01:07:36.083Z,101141
2018-06-20T01:10:02.086Z,101140
2018-06-20T01:12:28.106Z,101138
2018-06-20T01:14:54.114Z,101136
2018-06-20T01:17:20.162Z,101138
2018-06-20T01:19:46.162Z,101128
2018-06-20T01:22:12.177Z,101131
2018-06-20T01:24:38.186Z,101137
2018-06-20T01:27:04.194Z,101137
2018-06-20T01:29:30.206Z,101126
2018-06-20T01:31:56.218Z,101128
2018-06-20T01:34:22.234Z,101126
2018-06-20T01:36:48.238Z,101133
2018-06-20T01:39:14.247Z,101136
2018-06-20T01:41:40.253Z,101137
2018-06-20T01:44:06.267Z,101131
2018-06-20T01:46:32.294Z,101126
2018-06-20T01:48:58.310Z,101131
2018-06-20T01:51:24.331Z,101129
2018-06-20T01:53:50.363Z,101120
2018-06-20T01:56:16.379Z,101119
2018-06-20T01:58:42.399Z,101122
2018-06-20T02:01:08.405Z,101123
2018-06-20T02:03:34.408Z,101120
2018-06-20T02:06:00.441Z,101127
2018-06-20T02:08:26.470Z,101128
2018-06-20T02:10:52.498Z,101129
2018-06-20T02:13:18.522Z,101126
2018-06-20T02:15:44.526Z,101134
2018-06-20T02:18:10.532Z,101113
2018-06-20T02:20:36.550Z,101118
2018-06-20T02:23:02.559Z,101121
2018-06-20T02:25:28.583Z,101120
2018-06-20T02:27:54.596Z,101118
2018-06-20T02:30:20.684Z,101112
2018-06-20T02:32:46.716Z,101116
2018-06-20T02:35:12.730Z,101117
2018-06-20T02:37:38.755Z,101113
2018-06-20T02:40:04.767Z,101113
2018-06-20T02:42:30.787Z,101112
2018-06-20T02:44:56.792Z,101109
2018-06-20T02:47:22.813Z,101114
2018-06-20T02:49:48.814Z,101111
2018-06-20T02:52:14.824Z,101113
2018-06-20T02:54:40.825Z,101118
2018-06-20T02:57:06.841Z,101110
2018-06-20T02:59:32.877Z,101105
2018-06-20T03:01:58.899Z,101111
2018-06-20T03:04:24.902Z,101105
2018-06-20T03:06:50.919Z,101107
2018-06-20T03:09:16.924Z,101096
2018-06-20T03:11:42.934Z,101099
2018-06-20T03:14:08.945Z,101090
2018-06-20T03:16:34.971Z,101046
2018-06-20T03:19:00.987Z,101094
2018-06-20T03:21:26.994Z,101094
2018-06-20T03:23:53.006Z,101095
2018-06-20T03:26:19.026Z,101105
2018-06-20T03:28:45.053Z,101094
2018-06-20T03:31:11.087Z,101094
2018-06-20T03:33:37.096Z,101089
2018-06-20T03:36:03.118Z,101092
2018-06-20T03:38:29.131Z,101091
2018-06-20T03:40:55.147Z,101089
2018-06-20T03:43:21.191Z,101085
2018-06-20T03:45:47.205Z,101085
2018-06-20T03:48:13.229Z,101088
2018-06-20T03:50:39.238Z,101082
2018-06-20T03:53:05.273Z,101085
2018-06-20T03:55:31.304Z,101083
2018-06-20T03:57:57.333Z,101092
2018-06-20T04:00:23.341Z,101083
2018-06-20T04:02:49.366Z,101090
2018-06-20T04:05:15.434Z,101085
2018-06-20T04:07:41.467Z,101088
2018-06-20T04:10:07.482Z,101090
2018-06-20T04:12:33.517Z,101087
2018-06-20T04:14:59.527Z,101088
2018-06-20T04:17:25.545Z,101086
2018-06-20T04:19:51.647Z,101075
2018-06-20T04:22:17.674Z,101080
2018-06-20T04:24:43.686Z,101081
2018-06-20T04:27:09.692Z,101085
2018-06-20T04:29:35.731Z,101077
2018-06-20T04:32:01.738Z,101078
2018-06-20T04:34:27.756Z,101074
2018-06-20T04:36:53.785Z,101071
2018-06-20T04:39:19.824Z,101070
2018-06-20T04:41:45.833Z,101071
2018-06-20T04:44:11.847Z,101079
2018-06-20T04:46:37.893Z,101073
2018-06-20T04:49:03.926Z,101073
2018-06-20T04:51:29.931Z,101076
2018-06-20T04:53:55.951Z,101071
2018-06-20T04:56:21.979Z,101076
2018-06-20T04:58:48.000Z,101075
2018-06-20T05:01:14.013Z,101071
2018-06-20T05:03:40.039Z,101074
2018-06-20T05:06:06.093Z,101072
2018-06-20T05:08:32.115Z,101082
2018-06-20T05:10:58.138Z,101070
2018-06-20T05:13:24.206Z,101070
2018-06-20T05:15:50.271Z,101069
2018-06-20T05:18:16.276Z,101068
2018-06-20T05:20:42.301Z,101072
2018-06-20T05:23:08.318Z,101069
2018-06-20T05:25:34.395Z,101079
2018-06-20T05:28:00.406Z,101068
2018-06-20T05:30:26.524Z,101069
2018-06-20T05:32:52.585Z,101075
2018-06-20T05:35:18.571Z,101065
2018-06-20T05:37:44.579Z,101070
2018-06-20T05:40:10.598Z,101064
2018-06-20T05:42:36.646Z,101066
